Time;durP1;ratioP1;P1;durP2;ratioP2;P2;SDS_P1;SDS_P2;PMS_P1;PMS_P2;Temp;Humidity;BMP_temperature;BMP_pressure;BME280_temperature;BME280_humidity;BME280_pressure;Samples;Min_cycle;Max_cycle;Signal;HPM_P1;HPM_P2
2023/06/01 00:01:27;;;;;;;25.85;6.13;;;23.10;57.30;;;;;;5029094;28;20045;-54
2023/06/01 00:03:52;;;;;;;21.30;6.10;;;23.10;57.40;;;;;;5038372;28;20018;-55
2023/06/01 00:06:18;;;;;;;25.20;6.53;;;23.10;57.40;;;;;;5035643;28;20536;-54
2023/06/01 00:08:43;;;;;;;23.10;5.65;;;23.00;57.50;;;;;;5045732;28;20040;-54
2023/06/01 00:11:09;;;;;;;21.27;6.25;;;23.00;57.60;;;;;;5030598;28;20045;-54
2023/06/01 00:13:35;;;;;;;21.50;5.70;;;22.90;57.60;;;;;;5024469;28;20036;-54
2023/06/01 00:16:01;;;;;;;23.17;5.45;;;22.90;57.70;;;;;;5008562;28;20041;-54
2023/06/01 00:18:27;;;;;;;21.13;5.75;;;22.90;57.80;;;;;;5025686;28;20021;-54
2023/06/01 00:20:53;;;;;;;18.77;5.43;;;22.90;58.00;;;;;;5024126;28;20148;-54
2023/06/01 00:23:19;;;;;;;21.70;5.43;;;22.80;58.00;;;;;;5042066;28;20120;-54
2023/06/01 00:25:45;;;;;;;24.05;5.82;;;22.80;58.00;;;;;;5044645;28;20042;-54
2023/06/01 00:28:11;;;;;;;18.65;5.63;;;22.70;58.10;;;;;;5044056;28;20030;-54
2023/06/01 00:30:36;;;;;;;17.45;5.10;;;22.70;58.10;;;;;;5036109;28;20053;-54
2023/06/01 00:33:02;;;;;;;18.50;5.30;;;22.70;58.20;;;;;;5025901;28;20470;-54
2023/06/01 00:35:27;;;;;;;19.10;5.32;;;22.70;58.30;;;;;;5025589;28;20125;-54
2023/06/01 00:37:53;;;;;;;17.10;5.00;;;22.50;58.30;;;;;;5031618;28;20069;-54
2023/06/01 00:40:18;;;;;;;25.58;5.25;;;22.60;58.40;;;;;;5044666;28;20033;-54
2023/06/01 00:42:44;;;;;;;13.50;4.85;;;22.60;58.50;;;;;;5044005;28;20040;-54
2023/06/01 00:45:10;;;;;;;18.25;5.20;;;22.60;58.50;;;;;;5044546;28;20025;-58
2023/06/01 00:47:40;;;;;;;16.63;4.35;;;22.60;58.60;;;;;;5045070;28;20025;-58
2023/06/01 00:50:06;;;;;;;20.67;5.13;;;22.50;58.60;;;;;;5042182;28;20021;-58
2023/06/01 00:52:31;;;;;;;20.67;5.00;;;22.50;58.70;;;;;;5043184;28;20032;-58
2023/06/01 00:54:57;;;;;;;17.70;4.88;;;22.50;58.70;;;;;;5041529;28;20022;-58
2023/06/01 00:57:26;;;;;;;12.25;4.85;;;22.40;58.80;;;;;;5033706;28;20759;-58
2023/06/01 00:59:52;;;;;;;17.67;5.13;;;22.40;58.90;;;;;;5023833;28;20036;-58
2023/06/01 01:02:18;;;;;;;9.70;4.60;;;22.40;59.00;;;;;;5029931;28;20065;-58
2023/06/01 01:04:44;;;;;;;13.73;4.57;;;22.40;59.10;;;;;;5038900;28;20049;-58
2023/06/01 01:07:20;;;;;;;13.00;4.72;;;22.40;59.20;;;;;;5033264;28;20049;-58
2023/06/01 01:09:59;;;;;;;12.52;4.30;;;22.30;59.20;;;;;;5039155;28;20021;-58
2023/06/01 01:12:34;;;;;;;14.07;4.38;;;22.30;59.20;;;;;;5051608;28;20041;-58
2023/06/01 01:15:14;;;;;;;12.02;4.40;;;22.30;59.30;;;;;;5034873;28;20036;-58
2023/06/01 01:17:42;;;;;;;10.82;4.00;;;22.20;59.40;;;;;;5023833;28;20052;-57
2023/06/01 01:20:28;;;;;;;12.60;4.35;;;22.20;59.40;;;;;;5023292;28;20090;-58
2023/06/01 01:23:07;;;;;;;12.57;4.18;;;22.20;59.50;;;;;;5039318;28;20045;-57
2023/06/01 01:26:01;;;;;;;14.63;4.50;;;22.20;59.70;;;;;;5036008;28;20057;-58
2023/06/01 01:28:41;;;;;;;12.73;4.35;;;22.10;59.70;;;;;;5026527;28;20029;-58
2023/06/01 01:31:07;;;;;;;10.73;4.60;;;22.10;59.80;;;;;;5043026;28;20112;-58
2023/06/01 01:33:33;;;;;;;10.85;4.10;;;22.10;59.90;;;;;;5040110;28;20041;-58
2023/06/01 01:36:00;;;;;;;12.25;3.95;;;22.10;59.90;;;;;;5023393;28;20030;-58
2023/06/01 01:38:25;;;;;;;18.52;4.18;;;22.10;59.90;;;;;;5025137;28;20022;-58
2023/06/01 01:40:52;;;;;;;10.63;4.05;;;22.00;59.90;;;;;;5035881;28;20053;-58
2023/06/01 01:43:19;;;;;;;12.32;4.13;;;22.00;60.60;;;;;;5057668;28;20277;-58
2023/06/01 01:45:46;;;;;;;12.05;4.22;;;22.00;60.00;;;;;;5042377;28;20038;-58
2023/06/01 01:48:18;;;;;;;10.73;4.03;;;21.90;60.10;;;;;;5042694;28;20065;-57
2023/06/01 01:50:57;;;;;;;11.82;3.70;;;21.90;60.10;;;;;;5029945;28;20065;-58
2023/06/01 01:53:23;;;;;;;8.90;4.28;;;21.90;60.20;;;;;;5023307;28;20036;-58
2023/06/01 01:55:49;;;;;;;10.80;3.60;;;21.90;60.30;;;;;;5041133;28;20026;-58
2023/06/01 01:58:15;;;;;;;10.40;4.07;;;21.90;60.40;;;;;;5023233;28;20022;-58
2023/06/01 02:00:41;;;;;;;8.10;4.57;;;21.80;60.40;;;;;;5039537;28;20034;-58
2023/06/01 02:03:14;;;;;;;8.88;4.60;;;21.80;60.50;;;;;;5023947;28;20089;-58
2023/06/01 02:05:40;;;;;;;12.85;4.35;;;21.80;60.70;;;;;;5039501;28;20026;-58
2023/06/01 02:08:05;;;;;;;8.02;4.35;;;21.80;60.80;;;;;;5031310;28;20026;-58
2023/06/01 02:10:31;;;;;;;8.90;4.60;;;21.80;60.90;;;;;;5054870;28;20128;-58
2023/06/01 02:12:56;;;;;;;9.45;4.28;;;21.80;61.00;;;;;;5067953;28;20135;-57
2023/06/01 02:15:22;;;;;;;6.57;3.85;;;21.70;61.00;;;;;;5029793;28;20053;-58
2023/06/01 02:17:47;;;;;;;7.80;3.95;;;21.70;61.80;;;;;;5046836;28;20029;-58
2023/06/01 02:20:14;;;;;;;12.32;4.75;;;21.70;61.20;;;;;;5048261;28;20120;-58
2023/06/01 02:22:39;;;;;;;14.80;4.50;;;21.70;61.20;;;;;;5041123;28;20149;-58
2023/06/01 02:25:05;;;;;;;8.50;4.93;;;21.70;61.30;;;;;;5035651;28;20026;-58
2023/06/01 02:27:31;;;;;;;7.25;4.80;;;21.60;61.30;;;;;;5035575;28;20109;-58
2023/06/01 02:29:56;;;;;;;10.35;4.38;;;21.60;61.40;;;;;;5038078;28;20029;-58
2023/06/01 02:32:22;;;;;;;8.70;4.35;;;21.60;61.50;;;;;;5011065;28;20200;-58
2023/06/01 02:34:47;;;;;;;9.45;4.55;;;21.60;61.50;;;;;;5024428;28;20086;-57
2023/06/01 02:37:13;;;;;;;10.65;5.13;;;21.60;61.60;;;;;;5028189;28;20034;-58
2023/06/01 02:39:39;;;;;;;12.40;5.25;;;21.60;61.60;;;;;;5028544;28;20104;-58
2023/06/01 02:42:05;;;;;;;8.90;4.82;;;21.60;61.70;;;;;;5040881;28;20034;-57
2023/06/01 02:44:30;;;;;;;9.00;5.30;;;21.50;61.70;;;;;;5042318;28;20026;-58
2023/06/01 02:46:56;;;;;;;11.68;5.68;;;21.50;61.80;;;;;;5045032;28;20091;-57
2023/06/01 02:49:21;;;;;;;10.10;5.60;;;21.50;62.00;;;;;;5045767;28;20146;-58
2023/06/01 02:51:47;;;;;;;9.50;5.40;;;21.50;62.10;;;;;;5039913;28;20041;-58
2023/06/01 02:54:12;;;;;;;11.63;5.80;;;21.50;62.20;;;;;;5029080;28;20331;-58
2023/06/01 02:56:38;;;;;;;13.77;5.63;;;21.50;62.40;;;;;;5040808;28;20044;-58
2023/06/01 02:59:03;;;;;;;15.45;6.28;;;21.40;62.30;;;;;;5035619;28;20029;-58
2023/06/01 03:01:35;;;;;;;14.75;6.20;;;21.40;62.40;;;;;;5046489;28;20075;-58
2023/06/01 03:04:07;;;;;;;15.32;6.90;;;21.40;62.50;;;;;;5031533;28;20066;-58
2023/06/01 03:06:33;;;;;;;18.08;7.38;;;21.40;62.60;;;;;;5032043;28;20033;-58
2023/06/01 03:08:58;;;;;;;19.48;7.47;;;21.30;62.60;;;;;;5046772;28;20087;-58
2023/06/01 03:11:24;;;;;;;19.20;8.68;;;21.30;62.70;;;;;;5025587;28;20469;-58
2023/06/01 03:13:50;;;;;;;16.40;7.43;;;21.30;62.70;;;;;;5026668;28;20030;-57
2023/06/01 03:16:16;;;;;;;18.05;8.13;;;21.30;62.80;;;;;;5026534;28;20394;-58
2023/06/01 03:18:42;;;;;;;18.65;8.15;;;21.30;62.90;;;;;;5027334;28;20030;-58
2023/06/01 03:21:07;;;;;;;17.63;7.50;;;21.30;62.90;;;;;;5026799;28;20038;-57
2023/06/01 03:23:33;;;;;;;18.55;9.13;;;21.30;63.00;;;;;;5029679;28;20048;-58
2023/06/01 03:25:59;;;;;;;21.00;8.23;;;21.20;63.00;;;;;;5038397;28;20547;-58
2023/06/01 03:28:24;;;;;;;19.95;8.25;;;21.20;63.10;;;;;;5025598;28;20034;-58
2023/06/01 03:30:51;;;;;;;19.27;8.32;;;21.10;63.10;;;;;;5025854;28;20037;-58
2023/06/01 03:33:16;;;;;;;17.20;8.13;;;21.10;63.10;;;;;;5039885;28;20044;-58
2023/06/01 03:35:44;;;;;;;144.80;21.50;;;21.10;63.10;;;;;;5041338;28;20037;-58
2023/06/01 03:38:09;;;;;;;61.08;13.13;;;21.10;63.30;;;;;;5047247;28;20021;-58
2023/06/01 03:40:35;;;;;;;61.75;12.00;;;21.00;63.40;;;;;;5035873;28;20040;-58
2023/06/01 03:43:02;;;;;;;48.15;11.40;;;21.00;63.50;;;;;;5026551;28;20018;-58
2023/06/01 03:45:27;;;;;;;66.30;12.43;;;21.00;63.50;;;;;;5053367;28;20056;-58
2023/06/01 03:47:53;;;;;;;49.95;9.38;;;21.00;63.50;;;;;;5036255;28;20498;-58
2023/06/01 03:50:19;;;;;;;43.45;10.07;;;21.00;63.60;;;;;;5027539;28;20038;-58
2023/06/01 03:52:44;;;;;;;43.50;10.38;;;21.00;63.70;;;;;;5025076;28;20026;-58
2023/06/01 03:55:13;;;;;;;40.10;10.43;;;20.90;63.60;;;;;;5026611;28;20022;-58
2023/06/01 03:57:38;;;;;;;40.03;9.27;;;20.90;63.60;;;;;;5047936;28;20053;-58
2023/06/01 04:00:20;;;;;;;32.10;9.63;;;20.90;63.70;;;;;;5045442;28;20037;-58
2023/06/01 04:02:53;;;;;;;48.40;10.00;;;20.90;63.70;;;;;;5029242;28;20116;-58
2023/06/01 04:05:20;;;;;;;34.42;9.43;;;20.90;63.80;;;;;;5051280;28;20029;-58
2023/06/01 04:07:46;;;;;;;41.47;10.27;;;20.90;63.80;;;;;;5029504;28;20026;-58
2023/06/01 04:10:13;;;;;;;36.65;9.50;;;20.90;63.80;;;;;;5024632;28;20112;-58
2023/06/01 04:12:43;;;;;;;41.63;10.15;;;20.90;63.90;;;;;;5026320;28;20056;-58
2023/06/01 04:15:10;;;;;;;40.40;9.27;;;20.90;64.00;;;;;;5032933;28;20025;-58
2023/06/01 04:17:37;;;;;;;33.65;9.30;;;20.80;64.00;;;;;;5030253;28;20113;-58
2023/06/01 04:20:06;;;;;;;31.45;8.77;;;20.80;64.00;;;;;;5024747;28;20026;-58
2023/06/01 04:22:32;;;;;;;30.67;8.57;;;20.80;64.00;;;;;;5036418;28;20089;-58
2023/06/01 04:24:57;;;;;;;29.73;8.85;;;20.80;64.10;;;;;;5028967;28;20022;-57
2023/06/01 04:27:24;;;;;;;34.75;8.57;;;20.80;64.10;;;;;;5026338;28;20153;-58
2023/06/01 04:29:50;;;;;;;27.35;8.65;;;20.70;64.10;;;;;;5024566;28;20045;-58
2023/06/01 04:32:21;;;;;;;34.58;8.77;;;20.70;64.20;;;;;;5025934;28;20053;-58
2023/06/01 04:34:49;;;;;;;27.23;8.68;;;20.70;64.30;;;;;;5025743;28;20481;-58
2023/06/01 04:37:21;;;;;;;33.78;8.30;;;20.70;64.40;;;;;;5040629;28;20466;-58
2023/06/01 04:39:50;;;;;;;29.02;8.10;;;20.70;64.50;;;;;;5025835;28;20053;-57
2023/06/01 04:42:16;;;;;;;30.40;8.52;;;20.70;64.80;;;;;;5042834;28;20104;-58
2023/06/01 04:44:42;;;;;;;33.28;8.10;;;20.60;65.30;;;;;;5043412;28;20417;-58
2023/06/01 04:47:08;;;;;;;25.48;7.30;;;20.70;65.60;;;;;;5033278;28;20109;-58
2023/06/01 04:49:34;;;;;;;33.60;8.20;;;20.60;65.40;;;;;;5026664;28;20120;-58
2023/06/01 04:52:00;;;;;;;29.55;6.85;;;20.60;65.60;;;;;;5025567;28;20034;-58
2023/06/01 04:54:26;;;;;;;23.02;7.68;;;20.50;65.70;;;;;;5040060;28;20026;-58
2023/06/01 04:56:51;;;;;;;30.20;8.13;;;20.60;65.70;;;;;;5025437;28;20048;-58
2023/06/01 04:59:17;;;;;;;27.70;7.18;;;20.50;65.60;;;;;;5027092;28;20558;-57
2023/06/01 05:01:42;;;;;;;24.95;7.35;;;20.50;65.60;;;;;;5044268;28;20474;-58
2023/06/01 05:04:08;;;;;;;22.85;7.53;;;20.50;65.60;;;;;;5041894;28;20025;-57
2023/06/01 05:06:34;;;;;;;24.60;7.93;;;20.50;65.50;;;;;;5042979;28;20029;-58
2023/06/01 05:08:59;;;;;;;35.20;7.20;;;20.50;65.40;;;;;;5024989;28;20045;-58
2023/06/01 05:11:25;;;;;;;23.38;7.85;;;20.50;65.40;;;;;;5040998;28;20037;-58
2023/06/01 05:13:52;;;;;;;27.92;7.70;;;20.50;65.40;;;;;;5023671;28;20034;-58
2023/06/01 05:16:17;;;;;;;31.13;7.03;;;20.50;65.50;;;;;;5042877;28;20105;-58
2023/06/01 05:18:43;;;;;;;27.67;7.80;;;20.50;65.50;;;;;;5042753;28;20063;-58
2023/06/01 05:21:08;;;;;;;20.20;7.03;;;20.50;65.50;;;;;;5036710;28;20079;-58
2023/06/01 05:23:34;;;;;;;22.02;6.80;;;20.50;65.50;;;;;;5044904;28;20040;-58
2023/06/01 05:26:02;;;;;;;17.38;6.78;;;20.50;65.40;;;;;;5040578;28;20034;-58
2023/06/01 05:28:32;;;;;;;30.45;7.35;;;20.50;65.40;;;;;;5040860;28;20089;-58
2023/06/01 05:30:57;;;;;;;25.45;7.57;;;20.50;65.40;;;;;;5045479;28;20034;-58
2023/06/01 05:33:23;;;;;;;18.45;6.35;;;20.50;65.30;;;;;;5023567;28;20033;-58
2023/06/01 05:35:48;;;;;;;22.35;7.15;;;20.50;65.30;;;;;;5031170;28;20180;-58
2023/06/01 05:38:14;;;;;;;22.60;6.50;;;20.50;65.30;;;;;;5036659;28;20423;-58
2023/06/01 05:40:40;;;;;;;18.92;6.50;;;20.40;65.30;;;;;;5052900;28;20527;-58
2023/06/01 05:43:07;;;;;;;19.63;6.65;;;20.40;65.30;;;;;;5063482;28;20013;-57
2023/06/01 05:45:33;;;;;;;18.02;6.25;;;20.40;65.40;;;;;;5044589;28;20060;-58
2023/06/01 05:47:58;;;;;;;21.73;6.82;;;20.40;65.40;;;;;;5043382;28;20366;-58
2023/06/01 05:50:25;;;;;;;22.20;6.82;;;20.40;65.50;;;;;;5044677;28;20141;-58
2023/06/01 05:52:50;;;;;;;17.15;6.15;;;20.40;65.60;;;;;;5043189;28;20110;-58
2023/06/01 05:55:16;;;;;;;22.95;6.45;;;20.40;65.70;;;;;;5043922;28;20037;-58
2023/06/01 05:57:41;;;;;;;14.68;5.70;;;20.40;65.70;;;;;;5029007;28;20430;-58
2023/06/01 06:00:12;;;;;;;21.38;5.88;;;20.40;65.80;;;;;;5044502;28;20034;-58
2023/06/01 06:02:38;;;;;;;15.30;5.90;;;20.30;65.80;;;;;;5044441;28;20025;-57
2023/06/01 06:05:04;;;;;;;16.30;5.38;;;20.30;66.10;;;;;;5043453;28;20029;-58
2023/06/01 06:07:30;;;;;;;21.25;6.28;;;20.30;66.30;;;;;;5043136;28;20052;-58
2023/06/01 06:09:55;;;;;;;18.63;5.57;;;20.20;66.40;;;;;;5037209;28;20334;-58
2023/06/01 06:12:21;;;;;;;20.90;6.00;;;20.20;66.50;;;;;;5034746;28;20398;-58
2023/06/01 06:14:48;;;;;;;22.20;6.07;;;20.20;66.60;;;;;;5039746;28;20587;-58
2023/06/01 06:17:14;;;;;;;15.82;5.35;;;20.20;66.70;;;;;;5024779;28;20026;-58
2023/06/01 06:19:40;;;;;;;17.45;5.28;;;20.10;66.70;;;;;;5038343;28;20040;-58
2023/06/01 06:22:05;;;;;;;24.30;5.95;;;20.10;66.70;;;;;;5023175;28;20026;-58
2023/06/01 06:24:31;;;;;;;15.32;5.75;;;20.10;66.80;;;;;;5023170;28;20486;-58
2023/06/01 06:26:56;;;;;;;17.30;5.22;;;20.10;66.80;;;;;;5024217;28;20030;-58
2023/06/01 06:29:22;;;;;;;11.98;4.57;;;20.10;66.90;;;;;;5039913;28;20033;-58
2023/06/01 06:31:49;;;;;;;10.43;4.80;;;20.10;67.00;;;;;;5024783;28;20544;-58
2023/06/01 06:34:14;;;;;;;15.10;4.70;;;20.10;67.10;;;;;;5023825;28;20040;-58
2023/06/01 06:36:40;;;;;;;23.52;5.35;;;20.10;68.00;;;;;;5035204;28;20113;-58
2023/06/01 06:39:06;;;;;;;20.23;6.32;;;20.10;67.30;;;;;;5022363;28;20478;-58
2023/06/01 06:41:31;;;;;;;14.05;5.30;;;20.10;67.40;;;;;;5041864;28;20504;-58
2023/06/01 06:43:57;;;;;;;20.38;6.45;;;20.10;67.40;;;;;;5025440;28;20018;-58
2023/06/01 06:46:23;;;;;;;21.23;5.45;;;20.10;67.30;;;;;;5043799;28;20037;-58
2023/06/01 06:48:48;;;;;;;8.88;4.72;;;20.10;67.30;;;;;;5043545;28;20430;-58
2023/06/01 06:51:14;;;;;;;12.02;4.53;;;20.10;67.50;;;;;;5037622;28;20493;-58
2023/06/01 06:53:39;;;;;;;18.42;5.25;;;20.10;67.60;;;;;;5037518;28;20492;-58
2023/06/01 06:56:05;;;;;;;15.07;4.70;;;20.10;68.00;;;;;;5047321;28;20500;-58
2023/06/01 06:58:30;;;;;;;18.60;5.10;;;20.10;68.00;;;;;;5032290;28;20030;-58
2023/06/01 07:00:56;;;;;;;9.88;4.43;;;20.10;68.70;;;;;;5027500;28;20026;-58
2023/06/01 07:03:21;;;;;;;22.40;5.60;;;20.10;68.10;;;;;;5027227;28;20089;-58
2023/06/01 07:05:47;;;;;;;10.50;4.78;;;20.00;68.10;;;;;;5044698;28;20053;-58
2023/06/01 07:08:13;;;;;;;19.63;5.47;;;20.10;68.20;;;;;;5043638;28;20030;-58
2023/06/01 07:10:39;;;;;;;10.88;5.22;;;20.10;68.30;;;;;;5040972;28;20037;-58
2023/06/01 07:13:04;;;;;;;21.30;6.45;;;20.10;68.50;;;;;;5033008;28;20026;-59
2023/06/01 07:15:30;;;;;;;36.40;7.25;;;20.00;68.40;;;;;;5041414;28;20497;-57
2023/06/01 07:17:56;;;;;;;64.60;10.18;;;20.10;68.50;;;;;;5026224;28;20044;-57
2023/06/01 07:20:21;;;;;;;47.80;9.38;;;20.10;68.80;;;;;;5029094;28;20029;-58
2023/06/01 07:22:47;;;;;;;32.55;6.47;;;20.10;68.70;;;;;;5064286;28;20022;-58
2023/06/01 07:25:13;;;;;;;46.85;7.57;;;20.10;68.60;;;;;;5041855;28;20025;-57
2023/06/01 07:27:43;;;;;;;22.33;6.15;;;20.10;68.80;;;;;;5043193;28;20048;-57
2023/06/01 07:30:10;;;;;;;62.58;11.30;;;20.10;68.40;;;;;;5031942;28;20025;-58
2023/06/01 07:32:35;;;;;;;58.13;9.48;;;20.10;68.50;;;;;;5036585;28;20052;-58
2023/06/01 07:35:01;;;;;;;41.13;7.90;;;20.20;68.70;;;;;;5034941;28;20021;-58
2023/06/01 07:37:27;;;;;;;49.08;9.32;;;20.20;68.40;;;;;;5025034;28;20026;-58
2023/06/01 07:39:56;;;;;;;49.63;7.82;;;20.20;68.30;;;;;;5048469;28;20026;-58
2023/06/01 07:42:21;;;;;;;46.85;8.10;;;20.10;68.30;;;;;;5048884;28;20041;-58
2023/06/01 07:44:47;;;;;;;42.15;8.63;;;20.20;68.50;;;;;;5051341;28;20041;-58
2023/06/01 07:47:12;;;;;;;44.40;9.40;;;20.20;68.80;;;;;;5042289;28;20120;-58
2023/06/01 07:49:38;;;;;;;61.92;10.40;;;20.30;68.90;;;;;;5032123;28;20409;-58
2023/06/01 07:52:04;;;;;;;47.78;8.48;;;20.20;68.60;;;;;;5025140;28;20113;-58
2023/06/01 07:54:31;;;;;;;66.82;10.10;;;20.20;68.40;;;;;;5039030;28;20040;-58
2023/06/01 07:56:56;;;;;;;39.05;7.88;;;20.20;68.30;;;;;;5040179;28;20033;-58
2023/06/01 07:59:23;;;;;;;52.33;8.52;;;20.20;68.20;;;;;;5061879;28;20037;-58
2023/06/01 08:01:50;;;;;;;54.25;8.55;;;20.20;68.20;;;;;;5034014;28;20032;-58
2023/06/01 08:04:16;;;;;;;48.35;8.63;;;20.20;68.20;;;;;;5044902;28;20030;-58
2023/06/01 08:06:42;;;;;;;34.13;7.00;;;20.30;68.10;;;;;;5040716;28;20040;-58
2023/06/01 08:09:07;;;;;;;50.40;8.57;;;20.20;68.20;;;;;;5042673;28;20029;-58
2023/06/01 08:11:33;;;;;;;37.35;7.97;;;20.30;68.10;;;;;;5048751;28;20501;-58
2023/06/01 08:13:59;;;;;;;37.20;7.40;;;20.20;68.00;;;;;;5036612;28;20430;-58
2023/06/01 08:16:26;;;;;;;37.63;7.80;;;20.30;68.10;;;;;;5039899;28;21172;-58
2023/06/01 08:18:52;;;;;;;33.05;7.45;;;20.30;68.20;;;;;;5042249;28;20022;-58
2023/06/01 08:21:17;;;;;;;43.03;7.68;;;20.30;68.20;;;;;;5047425;28;20395;-58
2023/06/01 08:23:43;;;;;;;28.33;7.47;;;20.40;68.20;;;;;;5035863;28;20026;-58
2023/06/01 08:26:08;;;;;;;44.22;8.25;;;20.40;68.10;;;;;;5036830;28;20040;-57
2023/06/01 08:28:34;;;;;;;43.53;7.38;;;20.40;68.20;;;;;;5042423;28;20060;-58
2023/06/01 08:31:00;;;;;;;29.80;6.75;;;20.40;68.30;;;;;;5044257;28;20087;-58
2023/06/01 08:33:26;;;;;;;89.20;12.00;;;20.40;68.40;;;;;;5038811;28;20176;-58
2023/06/01 08:35:51;;;;;;;61.05;10.18;;;20.40;68.60;;;;;;5043451;28;20033;-58
2023/06/01 08:38:17;;;;;;;67.13;9.23;;;20.50;68.70;;;;;;5045000;28;20113;-58
2023/06/01 08:40:42;;;;;;;99.05;11.45;;;20.50;68.60;;;;;;5041355;28;20025;-58
2023/06/01 08:43:20;;;;;;;67.25;9.57;;;20.40;68.60;;;;;;5037470;28;20060;-57
2023/06/01 08:45:49;;;;;;;54.22;9.40;;;20.50;68.70;;;;;;5041591;28;20018;-57
2023/06/01 08:48:17;;;;;;;51.28;8.80;;;20.50;68.70;;;;;;5037287;28;20037;-58
2023/06/01 08:50:48;;;;;;;60.92;9.90;;;20.50;68.90;;;;;;5030974;28;20041;-58
2023/06/01 08:53:17;;;;;;;51.67;9.48;;;20.60;69.40;;;;;;5028985;28;20044;-58
2023/06/01 08:55:43;;;;;;;47.45;9.95;;;20.60;69.20;;;;;;5036360;28;20137;-58
2023/06/01 08:58:09;;;;;;;63.95;10.25;;;20.60;69.10;;;;;;5038238;28;20045;-58
2023/06/01 09:00:34;;;;;;;58.72;9.02;;;20.60;69.50;;;;;;5025418;28;20053;-58
2023/06/01 09:03:00;;;;;;;48.15;9.48;;;20.60;69.50;;;;;;5038402;28;20017;-58
2023/06/01 09:05:26;;;;;;;53.25;8.68;;;20.70;69.20;;;;;;5036324;28;20053;-58
2023/06/01 09:07:51;;;;;;;53.75;9.27;;;20.60;69.20;;;;;;5022338;28;20441;-58
2023/06/01 09:10:22;;;;;;;53.60;9.73;;;20.70;69.50;;;;;;5032047;28;20040;-58
2023/06/01 09:12:52;;;;;;;44.03;9.27;;;20.70;69.40;;;;;;5043362;28;20064;-58
2023/06/01 09:15:18;;;;;;;60.30;9.60;;;20.80;69.50;;;;;;5030203;28;20088;-54
2023/06/01 09:17:47;;;;;;;60.22;10.25;;;20.80;69.60;;;;;;5024200;28;20375;-54
2023/06/01 09:20:23;;;;;;;51.08;9.77;;;20.80;69.70;;;;;;5040484;28;20022;-54
2023/06/01 09:22:49;;;;;;;59.55;10.93;;;20.80;69.70;;;;;;5044617;28;20045;-54
2023/06/01 09:25:15;;;;;;;57.92;9.98;;;20.90;69.80;;;;;;5032107;28;20014;-54
2023/06/01 09:27:45;;;;;;;42.75;8.95;;;20.80;69.70;;;;;;5022460;28;20033;-54
2023/06/01 09:30:11;;;;;;;51.95;8.88;;;20.90;69.60;;;;;;5038605;28;20547;-54
2023/06/01 09:32:37;;;;;;;67.75;10.93;;;20.90;69.60;;;;;;5028973;28;20034;-54
2023/06/01 09:35:03;;;;;;;62.90;10.32;;;20.90;69.70;;;;;;5030275;28;20099;-54
2023/06/01 09:37:28;;;;;;;61.50;10.55;;;20.90;70.00;;;;;;5049731;28;20033;-54
2023/06/01 09:39:54;;;;;;;61.13;11.85;;;20.90;70.00;;;;;;5029529;28;20068;-54
2023/06/01 09:42:31;;;;;;;62.08;10.23;;;21.00;70.10;;;;;;5029209;28;20056;-54
2023/06/01 09:44:59;;;;;;;31.83;7.15;;;21.00;70.00;;;;;;5027528;28;20302;-54
2023/06/01 09:47:26;;;;;;;96.85;13.07;;;21.00;70.20;;;;;;5026456;28;20065;-54
2023/06/01 09:49:52;;;;;;;64.22;12.20;;;21.10;70.10;;;;;;5033029;28;20029;-54
2023/06/01 09:52:17;;;;;;;99.55;13.10;;;21.10;70.20;;;;;;5034983;28;20111;-54
2023/06/01 09:54:45;;;;;;;85.60;12.45;;;21.10;70.00;;;;;;5028862;28;21735;-54
2023/06/01 09:57:11;;;;;;;35.78;8.35;;;21.20;70.00;;;;;;5035738;28;20044;-54
2023/06/01 09:59:44;;;;;;;18.70;6.40;;;21.20;70.40;;;;;;5035797;28;20093;-54
2023/06/01 10:02:18;;;;;;;31.08;6.78;;;21.20;70.50;;;;;;5050309;28;20021;-53
2023/06/01 10:04:57;;;;;;;41.33;9.18;;;21.20;70.80;;;;;;5027837;28;20030;-54
2023/06/01 10:07:23;;;;;;;55.42;10.30;;;21.30;70.60;;;;;;5046207;28;20089;-54
2023/06/01 10:09:51;;;;;;;63.13;11.82;;;21.40;70.60;;;;;;5030940;28;20026;-54
2023/06/01 10:12:17;;;;;;;49.42;10.00;;;21.50;70.60;;;;;;5048392;28;20057;-54
2023/06/01 10:14:42;;;;;;;51.72;10.05;;;21.50;70.80;;;;;;5045986;28;20029;-54
2023/06/01 10:17:09;;;;;;;74.55;11.38;;;21.60;70.60;;;;;;5049848;28;20063;-54
2023/06/01 10:19:36;;;;;;;67.50;10.73;;;21.60;71.20;;;;;;5038896;28;20129;-54
2023/06/01 10:22:03;;;;;;;49.42;10.07;;;21.70;70.50;;;;;;5045286;28;20105;-54
2023/06/01 10:24:28;;;;;;;52.67;9.43;;;21.70;70.50;;;;;;5032217;28;20070;-54
2023/06/01 10:27:01;;;;;;;63.25;10.82;;;21.80;70.80;;;;;;5035048;28;20021;-54
2023/06/01 10:29:28;;;;;;;77.30;11.80;;;21.80;70.70;;;;;;5036877;28;20026;-54
2023/06/01 10:31:53;;;;;;;43.38;9.63;;;21.80;70.80;;;;;;5034290;28;20184;-54
2023/06/01 10:34:40;;;;;;;150.85;19.45;;;21.90;70.70;;;;;;5036475;28;20026;-54
2023/06/01 10:37:08;;;;;;;63.05;12.27;;;22.00;70.80;;;;;;5034933;28;20034;-54
2023/06/01 10:39:34;;;;;;;87.88;11.40;;;22.00;70.50;;;;;;5033791;28;20029;-54
2023/06/01 10:42:15;;;;;;;71.35;12.02;;;22.10;70.60;;;;;;5030583;28;20060;-54
2023/06/01 10:44:40;;;;;;;77.65;12.82;;;22.20;70.50;;;;;;5035947;28;20053;-53
2023/06/01 10:47:11;;;;;;;98.00;14.32;;;22.30;70.60;;;;;;5037940;28;20030;-54
2023/06/01 10:49:46;;;;;;;71.18;11.98;;;22.30;70.60;;;;;;5042067;28;20099;-54
2023/06/01 10:52:29;;;;;;;54.70;11.47;;;22.40;70.60;;;;;;5044160;28;20524;-54
2023/06/01 10:54:56;;;;;;;76.55;12.95;;;22.50;70.40;;;;;;5019318;28;20207;-54
2023/06/01 10:57:22;;;;;;;47.47;9.70;;;22.60;70.10;;;;;;5039330;28;20051;-54
2023/06/01 11:00:26;;;;;;;64.25;11.82;;;22.60;69.90;;;;;;5029957;28;20030;-53
2023/06/01 11:02:59;;;;;;;55.80;12.23;;;22.70;69.60;;;;;;5035228;28;20083;-54
2023/06/01 11:05:37;;;;;;;51.60;9.43;;;22.80;69.50;;;;;;5042943;28;20025;-54
2023/06/01 11:08:08;;;;;;;64.35;11.15;;;22.90;69.30;;;;;;5021107;28;20032;-54
2023/06/01 11:10:59;;;;;;;72.50;10.90;;;23.00;69.20;;;;;;5060947;28;20044;-54
2023/06/01 11:13:29;;;;;;;66.70;12.57;;;23.10;68.90;;;;;;5031438;28;20021;-54
2023/06/01 11:16:04;;;;;;;52.60;10.52;;;23.30;69.10;;;;;;5042900;28;20261;-54
2023/06/01 11:18:49;;;;;;;49.00;8.23;;;23.40;68.20;;;;;;5039438;28;20030;-53
2023/06/01 11:21:17;;;;;;;46.07;8.07;;;23.40;67.40;;;;;;5057994;28;20040;-54
2023/06/01 11:23:43;;;;;;;40.50;7.80;;;23.50;67.20;;;;;;5050343;28;20277;-54
2023/06/01 11:26:08;;;;;;;41.72;7.70;;;23.50;67.00;;;;;;5027534;28;20512;-54
2023/06/01 11:28:35;;;;;;;43.72;8.75;;;23.60;66.70;;;;;;5036390;28;20080;-54
2023/06/01 11:31:02;;;;;;;37.15;7.20;;;23.70;66.60;;;;;;5045194;28;20036;-54
2023/06/01 11:33:28;;;;;;;28.02;7.22;;;23.70;66.60;;;;;;5040618;28;20026;-54
2023/06/01 11:36:05;;;;;;;33.72;7.28;;;23.80;66.60;;;;;;5038038;28;20085;-54
2023/06/01 11:38:43;;;;;;;44.13;8.85;;;23.80;66.30;;;;;;5027428;28;20030;-54
2023/06/01 11:41:09;;;;;;;36.65;7.78;;;23.90;66.20;;;;;;5045137;28;20040;-54
2023/06/01 11:43:34;;;;;;;31.30;7.75;;;24.00;66.00;;;;;;5033232;28;20026;-54
2023/06/01 11:46:10;;;;;;;23.83;6.50;;;24.10;65.90;;;;;;5063343;28;20034;-54
2023/06/01 11:48:35;;;;;;;22.77;6.80;;;24.20;65.90;;;;;;5041055;28;20105;-54
2023/06/01 11:51:04;;;;;;;60.42;9.80;;;24.30;65.40;;;;;;5047921;28;20049;-54
2023/06/01 11:53:34;;;;;;;28.00;6.80;;;24.30;65.00;;;;;;5049028;28;20465;-54
2023/06/01 11:56:02;;;;;;;18.20;5.38;;;24.50;64.60;;;;;;5049566;28;20033;-54
2023/06/01 11:58:29;;;;;;;30.27;7.25;;;24.50;64.20;;;;;;5047207;28;20026;-54
2023/06/01 12:00:55;;;;;;;25.65;6.13;;;24.60;64.00;;;;;;5042395;28;20477;-54
2023/06/01 12:03:20;;;;;;;17.33;6.05;;;24.60;63.70;;;;;;5062985;28;20052;-54
2023/06/01 12:05:48;;;;;;;25.88;6.65;;;24.70;63.40;;;;;;5044773;28;20455;-54
2023/06/01 12:08:18;;;;;;;22.17;6.40;;;24.80;63.30;;;;;;5056436;28;20045;-54
2023/06/01 12:10:44;;;;;;;37.53;6.55;;;24.90;63.20;;;;;;5033324;28;20045;-54
2023/06/01 12:13:13;;;;;;;43.88;9.07;;;25.00;63.10;;;;;;5022664;28;20057;-54
2023/06/01 12:15:39;;;;;;;41.50;8.30;;;25.00;62.70;;;;;;5041369;28;20041;-54
2023/06/01 12:18:05;;;;;;;28.13;6.90;;;25.10;62.80;;;;;;5033502;28;20022;-54
2023/06/01 12:20:37;;;;;;;21.48;5.82;;;25.10;62.30;;;;;;5035455;28;20033;-54
2023/06/01 12:23:13;;;;;;;15.80;5.43;;;25.30;62.00;;;;;;5044254;28;20049;-54
2023/06/01 12:25:52;;;;;;;31.25;6.43;;;25.30;61.60;;;;;;5031479;28;20037;-54
2023/06/01 12:28:17;;;;;;;21.85;6.10;;;25.40;62.40;;;;;;5045418;28;20106;-54
2023/06/01 12:30:43;;;;;;;32.47;6.47;;;25.50;61.50;;;;;;5024954;28;20157;-54
2023/06/01 12:33:09;;;;;;;31.08;6.13;;;25.50;61.40;;;;;;5040936;28;20107;-53
2023/06/01 12:35:50;;;;;;;25.77;6.50;;;25.60;61.30;;;;;;5024101;28;20018;-54
2023/06/01 12:38:16;;;;;;;29.83;6.43;;;25.60;61.40;;;;;;5044777;28;20033;-54